Time;durP1;ratioP1;P1;durP2;ratioP2;P2;SDS_P1;SDS_P2;PMS_P1;PMS_P2;Temp;Humidity;BMP_temperature;BMP_pressure;BME280_temperature;BME280_humidity;BME280_pressure;Samples;Min_cycle;Max_cycle;Signal;HPM_P1;HPM_P2
2024/02/26 00:04:14;;;;;;;2.33;1.30;;;;;;;17.50;53.29;99772.72;10448429;28;20348;-63
2024/02/26 00:09:14;;;;;;;5.30;2.73;;;;;;;17.48;54.04;99778.41;10448893;28;20635;-62
2024/02/26 00:14:15;;;;;;;2.40;1.30;;;;;;;17.50;53.21;99768.16;10450160;28;20314;-62
2024/02/26 00:19:15;;;;;;;3.47;1.70;;;;;;;17.49;53.20;99768.47;10448599;28;20028;-62
2024/02/26 00:24:15;;;;;;;2.37;1.30;;;;;;;17.49;53.77;99766.59;10450148;28;20279;-62
2024/02/26 00:29:16;;;;;;;3.22;1.40;;;;;;;17.51;53.72;99769.75;10448505;28;20052;-62
2024/02/26 00:34:16;;;;;;;3.07;1.57;;;;;;;17.51;53.84;99767.06;10449866;28;20112;-62
2024/02/26 00:39:16;;;;;;;3.55;1.77;;;;;;;17.52;52.88;99757.94;10449433;28;20382;-63
2024/02/26 00:44:17;;;;;;;3.28;1.40;;;;;;;17.51;54.23;99761.69;10449930;28;20029;-63
2024/02/26 00:49:17;;;;;;;2.05;1.10;;;;;;;17.49;52.89;99749.72;10449150;28;20401;-63
2024/02/26 00:54:18;;;;;;;3.10;1.80;;;;;;;17.50;53.39;99754.75;10448380;28;20045;-62
2024/02/26 00:59:18;;;;;;;1.70;1.30;;;;;;;17.49;53.57;99755.06;10449104;28;20334;-62
2024/02/26 01:04:18;;;;;;;1.80;1.40;;;;;;;17.48;53.06;99745.47;10449455;28;20025;-62
2024/02/26 01:09:19;;;;;;;2.17;1.20;;;;;;;17.47;53.81;99752.72;10448989;28;20294;-62
2024/02/26 01:14:19;;;;;;;2.72;1.20;;;;;;;17.45;53.82;99744.19;10447775;28;20306;-63
2024/02/26 01:19:20;;;;;;;2.78;1.27;;;;;;;17.49;54.28;99730.94;10455686;28;20582;-62
2024/02/26 01:24:21;;;;;;;2.72;1.15;;;;;;;17.46;52.93;99739.63;10456939;28;20021;-62
2024/02/26 01:29:21;;;;;;;2.08;1.20;;;;;;;17.47;53.99;99739.31;10456431;28;20387;-63
2024/02/26 01:34:21;;;;;;;2.13;1.23;;;;;;;17.49;53.01;99726.38;10455453;28;20028;-62
2024/02/26 01:39:22;;;;;;;1.70;1.33;;;;;;;17.44;53.42;99742.63;10454748;28;20299;-62
2024/02/26 01:44:22;;;;;;;1.50;0.88;;;;;;;17.47;52.77;99749.25;10438224;28;20283;-62
2024/02/26 01:49:23;;;;;;;1.73;1.02;;;;;;;17.48;52.96;99756.19;10454442;28;20044;-62
2024/02/26 01:54:23;;;;;;;1.63;1.00;;;;;;;17.46;53.11;99763.75;10437771;28;20079;-62
2024/02/26 01:59:24;;;;;;;1.55;0.93;;;;;;;17.45;53.82;99773.69;10453754;28;20297;-62
2024/02/26 02:04:24;;;;;;;2.08;1.30;;;;;;;17.47;52.92;99779.50;10453972;28;20025;-62
2024/02/26 02:09:25;;;;;;;2.25;1.48;;;;;;;17.48;53.46;99796.38;10453580;28;20087;-62
2024/02/26 02:14:25;;;;;;;2.20;0.85;;;;;;;17.44;53.36;99796.22;10454912;28;20103;-62
2024/02/26 02:19:25;;;;;;;2.10;1.20;;;;;;;17.48;52.40;99799.06;10453091;28;20054;-62
2024/02/26 02:24:26;;;;;;;3.37;0.90;;;;;;;17.49;53.02;99808.69;10454412;28;20553;-62
2024/02/26 02:29:27;;;;;;;2.03;1.20;;;;;;;17.47;53.65;99811.66;10453672;28;20275;-63
2024/02/26 02:34:28;;;;;;;2.20;1.17;;;;;;;17.46;53.58;99815.44;10454009;28;20271;-62
2024/02/26 02:39:28;;;;;;;2.75;1.63;;;;;;;17.44;53.43;99812.28;10452216;28;20029;-62
2024/02/26 02:44:28;;;;;;;2.50;1.00;;;;;;;17.45;53.43;99811.19;10452606;28;20083;-62
2024/02/26 02:49:29;;;;;;;3.07;1.27;;;;;;;17.45;53.28;99807.72;10453096;28;20742;-63
2024/02/26 02:54:29;;;;;;;1.50;0.80;;;;;;;17.46;53.24;99820.03;10453190;28;20283;-62
2024/02/26 02:59:29;;;;;;;1.50;0.90;;;;;;;17.45;53.44;99816.56;10451827;28;20287;-62
2024/02/26 03:04:30;;;;;;;1.42;0.93;;;;;;;17.44;52.33;99816.88;10453030;28;20062;-61
2024/02/26 03:09:30;;;;;;;1.63;1.03;;;;;;;17.46;52.48;99826.16;10452113;28;20445;-62
2024/02/26 03:14:31;;;;;;;1.30;0.80;;;;;;;17.45;53.00;99827.28;10451261;28;20272;-62
2024/02/26 03:19:31;;;;;;;1.77;0.60;;;;;;;17.45;52.66;99824.59;10451927;28;20044;-63
2024/02/26 03:24:31;;;;;;;2.10;1.20;;;;;;;17.47;52.97;99827.75;10452342;28;20094;-63
2024/02/26 03:29:31;;;;;;;2.63;1.25;;;;;;;17.45;52.09;99826.47;10450609;28;20345;-63
2024/02/26 03:34:34;;;;;;;1.57;0.90;;;;;;;17.47;53.04;99835.78;10451264;28;20033;-62
2024/02/26 03:39:34;;;;;;;1.35;1.13;;;;;;;17.46;53.17;99844.16;10450445;28;20290;-62
2024/02/26 03:44:34;;;;;;;1.55;0.88;;;;;;;17.45;52.33;99847.94;10450478;28;20029;-62
2024/02/26 03:49:35;;;;;;;1.57;0.90;;;;;;;17.46;53.19;99855.66;10449792;28;20013;-63
2024/02/26 03:54:35;;;;;;;2.17;0.90;;;;;;;17.46;53.61;99849.50;10450907;28;20279;-62
2024/02/26 03:59:35;;;;;;;1.03;0.80;;;;;;;17.45;52.04;99845.25;10449092;28;20542;-62
2024/02/26 04:04:36;;;;;;;1.42;0.77;;;;;;;17.45;52.99;99847.94;10449394;28;20305;-62
2024/02/26 04:09:36;;;;;;;1.00;0.83;;;;;;;17.45;52.90;99859.44;10449990;28;20567;-62
2024/02/26 04:14:36;;;;;;;1.30;0.90;;;;;;;17.46;52.77;99858.34;10450299;28;20275;-62
2024/02/26 04:19:37;;;;;;;1.45;0.77;;;;;;;17.43;52.03;99858.97;10449583;28;20291;-62
2024/02/26 04:24:37;;;;;;;1.63;0.90;;;;;;;17.44;53.01;99860.53;10450214;28;20040;-62
2024/02/26 04:29:37;;;;;;;1.98;1.08;;;;;;;17.43;53.45;99866.19;10449284;28;20263;-62
2024/02/26 04:34:38;;;;;;;1.70;0.80;;;;;;;17.45;52.69;99866.69;10449129;28;20434;-63
2024/02/26 04:39:38;;;;;;;1.87;1.00;;;;;;;17.42;52.91;99872.66;10447287;28;20287;-63
2024/02/26 04:44:38;;;;;;;1.50;0.80;;;;;;;17.43;52.61;99872.34;10449448;28;20271;-63
2024/02/26 04:49:39;;;;;;;1.88;0.77;;;;;;;17.46;53.12;99878.97;10447969;28;20263;-63
2024/02/26 04:54:39;;;;;;;2.13;0.97;;;;;;;17.47;53.99;99888.59;10454485;28;20090;-64
2024/02/26 04:59:40;;;;;;;2.53;1.27;;;;;;;17.51;53.67;99886.88;10456202;28;20287;-62
2024/02/26 05:04:41;;;;;;;1.55;0.60;;;;;;;17.52;53.53;99896.50;10438192;28;20305;-62
2024/02/26 05:09:43;;;;;;;3.22;1.17;;;;;;;17.56;53.53;99897.47;10455154;28;20013;-61
2024/02/26 05:14:43;;;;;;;2.70;1.20;;;;;;;17.52;53.34;99897.31;10455367;28;20028;-60
2024/02/26 05:19:44;;;;;;;1.83;0.90;;;;;;;17.51;53.89;99903.75;10456102;28;20025;-61
2024/02/26 05:24:44;;;;;;;1.15;0.63;;;;;;;17.46;53.96;99895.84;10451896;28;20681;-61
2024/02/26 05:29:45;;;;;;;1.60;1.17;;;;;;;17.45;53.77;99894.28;10453714;28;20032;-60
2024/02/26 05:34:45;;;;;;;1.52;0.80;;;;;;;17.45;53.17;99902.31;10450412;28;20275;-61
2024/02/26 05:39:46;;;;;;;1.73;0.90;;;;;;;17.44;53.63;99913.34;10449612;28;20104;-61
2024/02/26 05:44:46;;;;;;;1.07;0.70;;;;;;;17.46;53.00;99914.59;10437457;28;20290;-61
2024/02/26 05:49:46;;;;;;;2.25;0.90;;;;;;;17.46;53.45;99922.66;10456058;28;20302;-61
2024/02/26 05:54:47;;;;;;;1.33;0.90;;;;;;;17.45;53.54;99926.44;10455648;28;20032;-61
2024/02/26 05:59:47;;;;;;;3.47;0.80;;;;;;;17.44;53.56;99924.84;10454198;28;20786;-62
2024/02/26 06:04:48;;;;;;;3.92;0.90;;;;;;;17.43;53.26;99928.63;10454068;28;20277;-62
2024/02/26 06:09:48;;;;;;;11.20;2.03;;;;;;;17.46;53.68;99925.34;10454928;28;20691;-61
2024/02/26 06:14:49;;;;;;;2.13;1.02;;;;;;;17.59;54.30;99929.03;10453892;28;20279;-63
2024/02/26 06:19:49;;;;;;;2.13;0.90;;;;;;;17.61;54.82;99937.53;10453591;28;20156;-62
2024/02/26 06:24:49;;;;;;;4.67;1.00;;;;;;;17.58;54.00;99948.09;10453089;28;20032;-62
2024/02/26 06:29:49;;;;;;;4.30;1.00;;;;;;;17.53;56.55;99971.25;10454720;28;20678;-61
2024/02/26 06:34:50;;;;;;;7.33;1.43;;;;;;;17.58;55.29;99961.50;10453806;28;20345;-59
2024/02/26 06:39:51;;;;;;;11.52;1.70;;;;;;;17.50;55.11;99969.19;10454378;28;20693;-61
2024/02/26 06:44:52;;;;;;;19.20;3.83;;;;;;;17.53;54.27;99967.78;10449478;28;20036;-62
2024/02/26 06:49:52;;;;;;;23.90;3.20;;;;;;;17.44;56.78;99972.31;10445511;28;20037;-62
2024/02/26 06:54:52;;;;;;;18.20;3.13;;;;;;;17.40;56.88;99974.78;10452000;28;20282;-61
2024/02/26 06:59:53;;;;;;;15.27;2.57;;;;;;;17.42;56.67;99991.38;10452867;28;20115;-61
2024/02/26 07:04:54;;;;;;;23.55;3.92;;;;;;;17.40;56.55;99995.44;10451188;28;20271;-61
2024/02/26 07:09:54;;;;;;;7.13;1.50;;;;;;;17.24;56.34;100005.72;10451419;28;20041;-62
2024/02/26 07:14:55;;;;;;;10.30;2.58;;;;;;;17.31;55.73;100016.81;10450612;28;20032;-60
2024/02/26 07:19:55;;;;;;;7.65;2.03;;;;;;;17.30;55.82;100023.28;10451960;28;20036;-61
2024/02/26 07:24:55;;;;;;;11.63;2.07;;;;;;;17.37;54.60;100017.47;10450724;28;20025;-61
2024/02/26 07:29:56;;;;;;;10.05;1.88;;;;;;;17.39;53.79;100026.78;10450823;28;20329;-61
2024/02/26 07:34:56;;;;;;;12.38;2.33;;;;;;;17.37;54.51;100022.84;10451193;28;20091;-61
2024/02/26 07:39:57;;;;;;;7.63;1.70;;;;;;;17.32;54.85;100031.00;10450141;28;20025;-61
2024/02/26 07:44:58;;;;;;;5.43;1.80;;;;;;;17.28;53.72;100040.72;10448365;28;20052;-61
2024/02/26 07:49:58;;;;;;;5.33;2.47;;;;;;;17.25;54.17;100037.56;10448268;28;20027;-60
2024/02/26 07:54:59;;;;;;;9.03;2.37;;;;;;;17.24;53.63;100044.03;10448593;28;20279;-62
2024/02/26 07:59:59;;;;;;;3.90;1.83;;;;;;;17.24;53.22;100059.31;10448604;28;20283;-61
2024/02/26 08:05:00;;;;;;;4.10;1.20;;;;;;;17.22;53.13;100064.19;10447218;28;20365;-61
2024/02/26 08:10:00;;;;;;;5.72;2.33;;;;;;;17.22;53.26;100066.84;10449879;28;20116;-61
2024/02/26 08:15:01;;;;;;;3.17;2.20;;;;;;;17.20;53.49;100061.00;10449439;28;20040;-61
2024/02/26 08:20:02;;;;;;;2.17;1.08;;;;;;;17.19;54.38;100067.47;10449503;28;20778;-61
2024/02/26 08:25:06;;;;;;;5.20;1.50;;;;;;;17.17;54.60;100070.44;10448307;28;20070;-61
2024/02/26 08:30:07;;;;;;;3.95;1.77;;;;;;;17.20;53.17;100085.13;10447397;28;20640;-61
2024/02/26 08:35:07;;;;;;;2.85;1.20;;;;;;;17.20;53.22;100093.94;10447845;28;20039;-60
2024/02/26 08:40:08;;;;;;;3.83;1.70;;;;;;;17.21;54.05;100100.09;10448686;28;20468;-61
2024/02/26 08:45:09;;;;;;;3.50;1.27;;;;;;;17.23;53.68;100095.22;10448943;28;20028;-61
2024/02/26 08:50:10;;;;;;;4.80;1.30;;;;;;;17.24;54.03;100107.53;10447568;28;20013;-61
2024/02/26 08:55:10;;;;;;;4.60;1.48;;;;;;;17.19;53.19;100104.97;10448584;28;20029;-60
2024/02/26 09:00:11;;;;;;;3.33;1.60;;;;;;;17.20;53.57;100110.03;10448637;28;20075;-61
2024/02/26 09:05:11;;;;;;;5.22;1.40;;;;;;;17.21;52.92;100113.50;10448057;28;20329;-61
2024/02/26 09:10:11;;;;;;;4.83;1.60;;;;;;;17.21;53.38;100118.84;10448033;28;20067;-61
2024/02/26 09:15:12;;;;;;;8.18;1.50;;;;;;;17.24;53.28;100124.41;10447549;28;20274;-60
2024/02/26 09:20:14;;;;;;;2.47;1.55;;;;;;;17.25;53.33;100130.56;10448485;28;20113;-60
2024/02/26 09:25:15;;;;;;;2.30;1.13;;;;;;;17.23;53.80;100135.41;10447534;28;20067;-61
2024/02/26 09:30:16;;;;;;;2.72;1.20;;;;;;;17.18;52.58;100152.41;10447842;28;20271;-61
2024/02/26 09:35:16;;;;;;;2.55;1.25;;;;;;;17.20;53.04;100154.78;10447393;28;20025;-61
2024/02/26 09:40:16;;;;;;;2.00;1.00;;;;;;;17.20;53.98;100160.13;10453227;28;20075;-61
2024/02/26 09:45:22;;;;;;;2.60;1.35;;;;;;;17.18;52.72;100178.41;10453427;28;20013;-61
2024/02/26 09:50:22;;;;;;;3.67;1.50;;;;;;;17.20;52.73;100178.88;10453994;28;20020;-61
2024/02/26 09:55:23;;;;;;;3.75;1.50;;;;;;;17.19;53.02;100180.78;10453096;28;20021;-61
2024/02/26 10:00:25;;;;;;;2.93;1.07;;;;;;;17.19;53.19;100183.47;10453541;28;20512;-61
2024/02/26 10:05:25;;;;;;;2.22;1.23;;;;;;;17.20;52.86;100189.59;10452566;28;20275;-61
2024/02/26 10:10:28;;;;;;;2.55;1.20;;;;;;;17.21;52.42;100201.91;10452884;28;20033;-61
2024/02/26 10:15:28;;;;;;;1.75;0.90;;;;;;;17.17;53.59;100201.72;10452604;28;20479;-61
2024/02/26 10:20:31;;;;;;;2.00;1.27;;;;;;;17.16;53.06;100216.19;10452753;28;20107;-61
2024/02/26 10:25:32;;;;;;;1.77;0.80;;;;;;;17.20;52.79;100222.56;10453056;28;20021;-61
2024/02/26 10:30:36;;;;;;;2.45;1.00;;;;;;;17.19;53.84;100234.38;10453580;28;20108;-61
2024/02/26 10:35:40;;;;;;;1.13;0.77;;;;;;;17.18;53.19;100242.69;10451913;28;20029;-61
2024/02/26 10:40:40;;;;;;;2.20;0.63;;;;;;;17.10;54.43;100256.78;10451481;28;20104;-61
2024/02/26 10:45:42;;;;;;;7.80;1.60;;;;;;;17.12;52.94;100254.59;10433140;28;20021;-60
2024/02/26 10:50:43;;;;;;;3.95;1.35;;;;;;;17.25;52.69;100272.56;10451957;28;20291;-59
2024/02/26 10:55:48;;;;;;;5.32;1.48;;;;;;;17.45;52.71;100282.09;10450721;28;20052;-61
2024/02/26 11:00:50;;;;;;;4.50;1.60;;;;;;;17.65;52.25;100278.22;10451939;28;20025;-61
2024/02/26 11:05:50;;;;;;;3.95;1.20;;;;;;;17.85;52.06;100293.91;10451531;28;20032;-61
2024/02/26 11:10:53;;;;;;;3.63;1.52;;;;;;;17.77;52.19;100305.34;10446908;28;20047;-60
2024/02/26 11:15:54;;;;;;;3.03;1.40;;;;;;;17.87;52.34;100304.31;10451167;28;20029;-61
2024/02/26 11:20:57;;;;;;;5.80;1.58;;;;;;;17.98;52.94;100311.84;10449155;28;20021;-61
2024/02/26 11:25:59;;;;;;;6.65;1.60;;;;;;;17.87;52.86;100323.09;10433552;28;20074;-60
2024/02/26 11:31:00;;;;;;;4.43;1.80;;;;;;;17.88;52.66;100330.03;10449002;28;20016;-59
2024/02/26 11:36:02;;;;;;;8.35;1.75;;;;;;;17.84;53.73;100337.91;10448908;28;20033;-61
2024/02/26 11:41:04;;;;;;;3.83;2.00;;;;;;;17.84;53.97;100340.59;10449424;28;20063;-61
2024/02/26 11:46:05;;;;;;;8.38;1.23;;;;;;;17.88;53.75;100340.78;10446865;28;20025;-61
2024/02/26 11:51:05;;;;;;;7.40;1.60;;;;;;;17.80;53.68;100340.41;10445851;28;20443;-62
2024/02/26 11:56:27;;;;;;;5.10;1.37;;;;;;;17.81;53.27;100341.19;10448717;28;20024;-62
2024/02/26 12:01:44;;;;;;;4.60;1.13;;;;;;;17.79;54.29;100348.75;10435958;28;20357;-62
2024/02/26 12:06:46;;;;;;;4.85;1.30;;;;;;;17.85;53.17;100346.75;10445739;28;20071;-61
2024/02/26 12:11:47;;;;;;;7.43;1.48;;;;;;;17.84;54.38;100362.03;10447264;28;20044;-62
2024/02/26 12:16:47;;;;;;;4.43;1.00;;;;;;;17.83;53.21;100363.13;10445407;28;20430;-62
2024/02/26 12:21:51;;;;;;;10.30;2.15;;;;;;;17.80;54.36;100377.16;10447352;28;20028;-61
2024/02/26 12:26:52;;;;;;;4.03;1.00;;;;;;;17.81;54.37;100374.16;10445131;28;20094;-61
2024/02/26 12:31:52;;;;;;;4.53;1.10;;;;;;;17.85;54.49;100378.94;10447846;28;20033;-62
2024/02/26 12:36:54;;;;;;;5.45;1.20;;;;;;;17.87;54.20;100387.47;10446600;28;20021;-59
2024/02/26 12:41:55;;;;;;;4.85;1.95;;;;;;;17.84;54.66;100388.88;10446789;28;20443;-60
2024/02/26 12:47:02;;;;;;;11.55;1.73;;;;;;;17.83;55.07;100398.00;10445963;28;20016;-61
2024/02/26 12:52:03;;;;;;;2.35;0.90;;;;;;;17.86;54.18;100408.13;10446968;28;20036;-60
2024/02/26 12:57:04;;;;;;;9.55;1.30;;;;;;;17.82;54.34;100415.19;10445906;28;20025;-61
2024/02/26 13:02:04;;;;;;;2.50;1.00;;;;;;;17.80;53.32;100412.00;10446293;28;20108;-59
2024/02/26 13:07:05;;;;;;;4.43;1.13;;;;;;;17.86;54.08;100413.50;10443346;28;20108;-61
2024/02/26 13:12:06;;;;;;;5.10;1.05;;;;;;;17.88;54.29;100429.28;10447584;28;20044;-59
2024/02/26 13:17:07;;;;;;;6.50;2.03;;;;;;;17.96;53.79;100436.66;10452712;28;20447;-60
2024/02/26 13:22:07;;;;;;;3.78;1.60;;;;;;;17.91;55.04;100440.22;10455138;28;20078;-58
2024/02/26 13:27:07;;;;;;;6.03;1.63;;;;;;;17.93;54.97;100438.03;10473613;28;20025;-58
2024/02/26 13:32:12;;;;;;;7.43;1.30;;;;;;;17.95;54.44;100451.94;10458512;28;20036;-61
2024/02/26 13:37:12;;;;;;;3.22;1.20;;;;;;;17.88;55.56;100454.25;10456678;28;20032;-61
2024/02/26 13:42:12;;;;;;;4.37;1.10;;;;;;;17.92;54.84;100459.81;10472012;28;20521;-61
2024/02/26 13:47:13;;;;;;;2.05;1.05;;;;;;;17.89;55.52;100458.53;10470618;28;20025;-61
2024/02/26 13:52:13;;;;;;;3.33;0.77;;;;;;;17.81;54.91;100470.72;10451380;28;20033;-59
2024/02/26 13:57:14;;;;;;;6.78;0.73;;;;;;;17.90;54.91;100476.19;10454112;28;20017;-59
2024/02/26 14:02:14;;;;;;;7.28;1.95;;;;;;;17.90;55.24;100494.97;10451765;28;20029;-60
2024/02/26 14:07:16;;;;;;;9.10;1.38;;;;;;;17.74;56.25;100507.03;10454732;28;20021;-61
2024/02/26 14:12:17;;;;;;;7.05;1.10;;;;;;;17.69;55.49;100513.31;10464144;28;20387;-62
2024/02/26 14:17:17;;;;;;;7.15;1.25;;;;;;;17.70;56.26;100514.88;10463311;28;20033;-61
2024/02/26 14:22:17;;;;;;;5.10;1.60;;;;;;;17.67;56.85;100520.03;10453785;28;20060;-62
2024/02/26 14:27:20;;;;;;;5.47;1.90;;;;;;;17.63;56.47;100527.03;10432094;28;20942;-59
2024/02/26 14:32:20;;;;;;;4.88;1.30;;;;;;;17.67;55.84;100536.13;10451900;28;20283;-66
2024/02/26 14:37:21;;;;;;;6.20;0.90;;;;;;;17.66;56.24;100545.25;10450074;28;20025;-60
2024/02/26 14:42:24;;;;;;;6.80;1.80;;;;;;;17.64;56.41;100555.44;10452010;28;20600;-58
2024/02/26 14:47:24;;;;;;;3.67;1.08;;;;;;;17.63;56.27;100564.59;10450127;28;20024;-62
2024/02/26 14:52:24;;;;;;;9.32;1.70;;;;;;;17.62;57.41;100566.47;10451288;28;20021;-61
2024/02/26 14:57:25;;;;;;;8.43;1.63;;;;;;;17.71;56.72;100567.44;10449772;28;20035;-58
2024/02/26 15:02:25;;;;;;;8.65;1.45;;;;;;;17.72;57.07;100574.38;10450187;28;20271;-61
2024/02/26 15:07:25;;;;;;;11.27;1.43;;;;;;;17.66;57.72;100580.91;10450114;28;20012;-61
2024/02/26 15:12:26;;;;;;;11.90;1.67;;;;;;;17.65;57.93;100598.06;10448880;28;20326;-62
2024/02/26 15:17:28;;;;;;;6.05;1.40;;;;;;;17.70;57.22;100598.03;10449850;28;20031;-63
2024/02/26 15:22:28;;;;;;;11.02;1.88;;;;;;;17.63;57.73;100610.16;10450025;28;20052;-64
2024/02/26 15:27:28;;;;;;;21.77;2.78;;;;;;;17.50;57.38;100622.41;10446822;28;20028;-61
2024/02/26 15:32:29;;;;;;;13.20;2.97;;;;;;;17.55;55.92;100619.69;10449047;28;20067;-60
2024/02/26 15:37:29;;;;;;;6.95;1.65;;;;;;;17.58;55.74;100627.13;10449596;28;20286;-60
2024/02/26 15:42:29;;;;;;;6.43;1.50;;;;;;;17.58;56.37;100637.06;10448236;28;20029;-60
2024/02/26 15:47:30;;;;;;;7.60;1.67;;;;;;;17.59;55.92;100660.91;10449812;28;20031;-60
2024/02/26 15:52:30;;;;;;;9.55;1.60;;;;;;;17.60;54.48;100665.16;10448942;28;20029;-60
2024/02/26 15:57:30;;;;;;;4.43;1.63;;;;;;;17.62;55.21;100668.34;10447569;28;20041;-60
2024/02/26 16:02:31;;;;;;;3.03;1.30;;;;;;;17.64;54.63;100674.25;10448291;28;20310;-60
2024/02/26 16:07:43;;;;;;;7.20;1.27;;;;;;;17.64;55.31;100673.41;10449822;28;20637;-60
2024/02/26 16:12:48;;;;;;;5.00;1.15;;;;;;;17.64;53.84;100679.59;10447940;28;20299;-60
2024/02/26 16:17:51;;;;;;;6.50;1.35;;;;;;;17.65;53.63;100691.94;10448557;28;20350;-60
2024/02/26 16:22:51;;;;;;;3.30;1.15;;;;;;;17.58;56.04;100707.56;10447010;28;20200;-62
2024/02/26 16:27:52;;;;;;;11.13;1.80;;;;;;;17.48;55.74;100707.69;10440561;28;20029;-62
2024/02/26 16:32:52;;;;;;;9.32;1.85;;;;;;;17.46;56.58;100704.50;10439078;28;20294;-61
2024/02/26 16:37:53;;;;;;;11.87;2.20;;;;;;;17.51;55.21;100710.59;10442301;28;20116;-60
2024/02/26 16:42:53;;;;;;;9.67;2.13;;;;;;;17.57;55.41;100724.75;10442894;28;20279;-59
2024/02/26 16:47:53;;;;;;;6.35;2.60;;;;;;;17.59;55.07;100732.47;10449586;28;20283;-61
2024/02/26 16:52:55;;;;;;;9.52;4.18;;;;;;;17.74;58.50;100733.09;10455688;28;20533;-60
2024/02/26 16:57:58;;;;;;;7.57;3.63;;;;;;;17.75;59.00;100736.59;10454412;28;20421;-60
2024/02/26 17:03:00;;;;;;;7.78;2.53;;;;;;;17.92;58.55;100747.63;10452449;28;20580;-61
2024/02/26 17:08:00;;;;;;;6.45;2.58;;;;;;;18.23;59.91;100749.84;10456221;28;20021;-61
2024/02/26 17:13:01;;;;;;;14.88;2.65;;;;;;;18.32;58.57;100753.47;10454510;28;20052;-59
2024/02/26 17:18:01;;;;;;;15.68;2.25;;;;;;;18.27;58.96;100780.41;10450721;28;20064;-63
2024/02/26 17:23:02;;;;;;;12.55;2.45;;;;;;;18.21;59.48;100785.03;10453469;28;20123;-60
2024/02/26 17:28:02;;;;;;;12.52;2.67;;;;;;;18.17;58.32;100797.44;10450149;28;20642;-59
2024/02/26 17:33:03;;;;;;;8.07;2.20;;;;;;;18.09;58.81;100803.44;10438115;28;20044;-61
2024/02/26 17:38:03;;;;;;;5.18;2.10;;;;;;;18.05;59.39;100822.03;10452632;28;20542;-64
2024/02/26 17:43:03;;;;;;;10.40;2.43;;;;;;;18.08;59.27;100832.16;10434752;28;20025;-61
2024/02/26 17:48:04;;;;;;;10.83;3.07;;;;;;;17.85;57.79;100848.31;10444030;28;20283;-60
2024/02/26 17:53:04;;;;;;;14.52;1.92;;;;;;;17.73;57.71;100859.44;10450652;28;20670;-60
2024/02/26 17:58:05;;;;;;;12.23;2.73;;;;;;;17.80;57.65;100860.69;10454033;28;20028;-58
2024/02/26 18:03:05;;;;;;;12.13;2.63;;;;;;;17.80;57.42;100879.47;10449074;28;20271;-58
2024/02/26 18:08:05;;;;;;;12.00;3.03;;;;;;;17.63;57.47;100880.97;10454958;28;20735;-59
2024/02/26 18:13:06;;;;;;;14.00;3.08;;;;;;;17.61;57.66;100900.03;10452436;28;20045;-58
2024/02/26 18:18:06;;;;;;;12.67;2.63;;;;;;;17.64;56.73;100923.63;10450685;28;20039;-58
2024/02/26 18:23:06;;;;;;;23.15;4.13;;;;;;;17.72;57.57;100928.38;10447772;28;20371;-59
2024/02/26 18:28:07;;;;;;;12.73;2.40;;;;;;;17.78;56.73;100929.94;10440694;28;20017;-59
2024/02/26 18:33:07;;;;;;;21.53;2.67;;;;;;;17.78;57.26;100937.19;10443610;28;20029;-57
2024/02/26 18:38:07;;;;;;;7.60;1.70;;;;;;;17.78;55.81;100958.63;10450858;28;20302;-60
2024/02/26 18:43:08;;;;;;;6.60;2.50;;;;;;;17.80;56.27;100964.50;10453550;28;20275;-59
2024/02/26 18:48:08;;;;;;;10.80;2.37;;;;;;;17.82;56.18;100979.22;10453965;28;20287;-59
2024/02/26 18:53:11;;;;;;;9.18;2.20;;;;;;;17.85;55.54;100980.53;10452870;28;20344;-59
2024/02/26 18:58:11;;;;;;;17.73;2.72;;;;;;;17.84;55.50;101000.41;10452945;28;20052;-59
2024/02/26 19:03:12;;;;;;;9.33;2.10;;;;;;;17.83;55.90;101001.47;10451931;28;20108;-58
2024/02/26 19:08:15;;;;;;;9.48;2.47;;;;;;;17.85;55.12;101012.72;10447455;28;20287;-59
2024/02/26 19:13:15;;;;;;;9.60;2.35;;;;;;;17.81;55.39;101022.44;10444717;28;20127;-60
2024/02/26 19:18:16;;;;;;;7.88;1.85;;;;;;;17.80;55.52;101034.25;10450396;28;20025;-61
2024/02/26 19:23:16;;;;;;;6.88;1.73;;;;;;;17.75;55.09;101045.00;10450300;28;20395;-62
2024/02/26 19:28:16;;;;;;;6.53;1.73;;;;;;;17.71;56.16;101052.03;10447556;28;20029;-62
2024/02/26 19:33:17;;;;;;;6.97;2.23;;;;;;;17.75;55.46;101061.91;10447911;28;20028;-60
2024/02/26 19:38:17;;;;;;;5.05;2.22;;;;;;;17.76;54.80;101060.84;10450992;28;20462;-59
2024/02/26 19:43:17;;;;;;;5.47;1.60;;;;;;;17.69;55.40;101067.59;10449238;28;20033;-59
2024/02/26 19:48:18;;;;;;;7.63;1.42;;;;;;;17.62;56.27;101065.19;10450772;28;20279;-60
2024/02/26 19:53:18;;;;;;;6.27;1.60;;;;;;;17.60;55.25;101069.25;10450293;28;20392;-60
2024/02/26 19:58:19;;;;;;;3.67;2.10;;;;;;;17.54;55.26;101082.69;10450327;28;20287;-59
2024/02/26 20:03:19;;;;;;;7.80;1.50;;;;;;;17.50;55.33;101084.31;10449473;28;20603;-60
2024/02/26 20:08:19;;;;;;;6.37;1.97;;;;;;;17.47;55.17;101094.81;10450531;28;20029;-60
2024/02/26 20:13:25;;;;;;;3.95;1.67;;;;;;;17.40;56.60;101096.97;10449483;28;20705;-60
2024/02/26 20:18:25;;;;;;;3.33;1.40;;;;;;;17.38;55.88;101107.19;10449937;28;20013;-60
2024/02/26 20:23:26;;;;;;;2.67;1.07;;;;;;;17.34;55.63;101116.88;10448266;28;20024;-59
2024/02/26 20:28:26;;;;;;;6.23;2.50;;;;;;;17.30;55.24;101121.19;10449582;28;20629;-61
2024/02/26 20:33:27;;;;;;;4.65;1.40;;;;;;;17.27;55.08;101124.41;10449398;28;20329;-61
2024/02/26 20:38:27;;;;;;;5.30;1.88;;;;;;;17.21;55.86;101126.31;10448944;28;20029;-60
2024/02/26 20:43:27;;;;;;;4.82;3.05;;;;;;;17.18;54.83;101140.28;10430725;28;20032;-60
2024/02/26 20:48:28;;;;;;;2.93;1.30;;;;;;;17.13;56.07;101141.09;10450105;28;20024;-59
2024/02/26 20:53:28;;;;;;;3.60;2.72;;;;;;;17.13;54.83;101156.34;10449590;28;20302;-60
2024/02/26 20:58:31;;;;;;;2.90;1.57;;;;;;;17.08;55.66;101164.44;10449749;28;20029;-60
2024/02/26 21:03:31;;;;;;;4.88;1.58;;;;;;;17.08;54.92;101162.56;10447997;28;20294;-60
2024/02/26 21:08:31;;;;;;;2.37;1.43;;;;;;;17.08;55.87;101177.81;10446663;28;20029;-59
2024/02/26 21:13:32;;;;;;;3.20;1.37;;;;;;;17.10;55.07;101173.00;10448451;28;20298;-60
2024/02/26 21:18:35;;;;;;;2.20;1.05;;;;;;;17.11;54.71;101185.31;10448122;28;21027;-60
2024/02/26 21:23:35;;;;;;;2.72;1.38;;;;;;;17.09;55.48;101193.63;10448881;28;20191;-60
2024/02/26 21:28:37;;;;;;;3.10;1.42;;;;;;;17.08;55.65;101200.06;10449081;28;20018;-59
2024/02/26 21:33:37;;;;;;;2.63;1.80;;;;;;;17.11;55.53;101210.22;10451322;28;20361;-59
2024/02/26 21:38:37;;;;;;;3.78;1.52;;;;;;;17.16;55.64;101220.91;10456790;28;20033;-61
2024/02/26 21:43:38;;;;;;;2.58;1.25;;;;;;;17.21;55.07;101222.78;10454961;28;20032;-59
2024/02/26 21:48:38;;;;;;;1.95;1.42;;;;;;;17.19;55.43;101220.38;10456616;28;20111;-59
2024/02/26 21:53:39;;;;;;;2.37;1.20;;;;;;;17.23;54.57;101242.88;10455720;28;20108;-60
2024/02/26 21:58:39;;;;;;;2.80;1.33;;;;;;;17.23;55.00;101244.75;10455891;28;20785;-59
2024/02/26 22:03:42;;;;;;;1.88;1.00;;;;;;;17.27;54.28;101247.69;10454085;28;20039;-59
2024/02/26 22:08:42;;;;;;;4.03;1.38;;;;;;;17.24;54.59;101265.13;10455550;28;20049;-60
2024/02/26 22:13:44;;;;;;;2.28;1.70;;;;;;;17.29;55.32;101267.00;10454797;28;20144;-59
2024/02/26 22:18:44;;;;;;;2.97;1.20;;;;;;;17.28;54.00;101268.03;10455139;28;20460;-59
2024/02/26 22:23:45;;;;;;;3.00;1.17;;;;;;;17.28;54.90;101268.84;10454647;28;20055;-60
2024/02/26 22:28:47;;;;;;;3.27;1.40;;;;;;;17.29;54.02;101267.81;10454837;28;20024;-60
2024/02/26 22:33:47;;;;;;;2.65;0.85;;;;;;;17.26;53.63;101268.31;10454230;28;20283;-60
2024/02/26 22:38:47;;;;;;;1.95;0.98;;;;;;;17.30;54.30;101264.03;10454427;28;20036;-59
2024/02/26 22:43:48;;;;;;;1.87;1.10;;;;;;;17.31;54.16;101281.72;10451999;28;20021;-59
2024/02/26 22:48:48;;;;;;;3.57;1.33;;;;;;;17.32;54.36;101294.03;10453969;28;20802;-60
2024/02/26 22:53:48;;;;;;;1.33;0.90;;;;;;;17.34;54.17;101301.81;10453238;28;20279;-59
2024/02/26 22:58:49;;;;;;;2.00;1.10;;;;;;;17.31;54.37;101297.00;10453665;28;20287;-59
2024/02/26 23:03:49;;;;;;;2.67;1.53;;;;;;;17.30;54.31;101295.41;10451904;28;20983;-60
2024/02/26 23:08:50;;;;;;;1.95;1.00;;;;;;;17.32;53.35;101307.44;10452851;28;20405;-59